UTSB

Bukhara Airport

Bukhara, Uzbekistan
TAF UTSB 151100Z 1512/1612 35012KT 7000 NSC TX36/1611Z TEMPO 1512/1515 02014G24KT TEMPO 1515/1524 VRB03KT
Issued Valid From Valid To
Aug-15 @ 11:00 UTC
(2 hours ago)
Aug-15 @ 12:00 UTC
(39 minutes ago)
Aug-16 @ 12:00 UTC
(in 23 hours)
Aug-15 @ 12:00 to Aug-16 @ 12:00
TAF UTSB 151100Z 1512/1612 35012KT 7000 NSC TX36/1611Z
Wind Visibility Clouds
350° at 12 knots 7,001 meters
  • No significant clouds
Temporary Aug-15 @ 12:00 to Aug-15 @ 15:00
TEMPO 1512/1515 02014G24KT
Wind
20° at 14 knots
 Gusting to 24 knots
Temporary Aug-15 @ 15:00 to Aug-16 @ 00:00
TEMPO 1515/1524 VRB03KT
Wind
Variable at 3 knots
TAF UTSB 151100Z 1512/1612 35012KT 7000 NSC TX36/1611Z TEMPO 1512/1515 02014G24KT TEMPO 1515/1524 VRB03KT
Issued Aug-15 @ 11:00 UTC
(2 hours ago)
Valid From Aug-15 @ 12:00 UTC
(39 minutes ago)
Valid To Aug-16 @ 12:00 UTC
(in 23 hours)
Aug-15 @ 12:00 - Aug-16 @ 12:00
Wind Visibility
350° at 12 knots 7,001 meters
Clouds
  • No significant clouds
Temporary Aug-15 @ 12:00 - Aug-15 @ 15:00
Wind
20° at 14 knots
 Gusting to 24 knots
Temporary Aug-15 @ 15:00 - Aug-16 @ 00:00
Wind
Variable at 3 knots